Time;durP1;ratioP1;P1;durP2;ratioP2;P2;SDS_P1;SDS_P2;PMS_P1;PMS_P2;Temp;Humidity;BMP_temperature;BMP_pressure;BME280_temperature;BME280_humidity;BME280_pressure;Samples;Min_cycle;Max_cycle;Signal;HPM_P1;HPM_P2
2022/12/15 00:40:09;;;;;;;17.60;12.90;;;5.30;78.90;4.90;95020.00;;;;5080493;28;20502;-81
2022/12/15 00:42:37;;;;;;;16.53;12.10;;;5.30;79.00;4.90;95019.00;;;;5080743;28;20496;-81
2022/12/15 00:45:05;;;;;;;18.80;13.50;;;5.30;79.00;4.90;95017.00;;;;5078718;28;20484;-81
2022/12/15 00:47:32;;;;;;;17.43;13.33;;;5.30;78.90;4.90;95010.00;;;;5079631;28;20568;-82
2022/12/15 01:20:22;;;;;;;20.27;13.23;;;5.30;78.80;4.90;95030.00;;;;5087476;28;20238;-82
2022/12/15 01:22:53;;;;;;;19.47;14.13;;;5.30;78.70;4.90;95045.00;;;;5085277;28;20249;-82
2022/12/15 01:25:23;;;;;;;17.90;12.50;;;5.20;78.80;4.90;95050.00;;;;5085478;28;20284;-82
2022/12/15 01:27:51;;;;;;;19.53;13.53;;;5.30;79.00;4.90;95051.00;;;;5083899;28;20272;-83
2022/12/15 01:30:41;;;;;;;17.90;13.70;;;5.30;78.90;4.90;95053.00;;;;5084512;28;20195;-82
2022/12/15 01:33:08;;;;;;;18.70;13.17;;;5.30;78.50;4.90;95047.00;;;;5078190;28;20196;-82
2022/12/15 01:35:35;;;;;;;22.00;14.53;;;5.30;78.70;4.90;95049.00;;;;5085656;28;20260;-83
2022/12/15 01:38:02;;;;;;;19.30;13.77;;;5.30;78.70;4.90;95048.00;;;;5086027;28;20449;-83
2022/12/15 01:40:45;;;;;;;20.20;14.40;;;5.30;78.70;4.90;95056.00;;;;5087012;28;20680;-82
2022/12/15 01:43:16;;;;;;;20.20;13.27;;;5.30;78.80;5.00;95066.00;;;;5087115;28;20199;-83
2022/12/15 01:46:04;;;;;;;18.63;13.73;;;5.30;78.70;4.90;95063.00;;;;5085284;28;20221;-80
2022/12/15 01:48:41;;;;;;;18.83;12.70;;;5.30;78.60;4.90;95076.00;;;;5084095;28;20677;-81
2022/12/15 01:51:23;;;;;;;19.63;13.87;;;5.30;78.70;4.90;95062.00;;;;5084740;28;20455;-80
2022/12/15 01:54:00;;;;;;;20.17;14.13;;;5.30;78.50;4.90;95059.00;;;;5085783;28;20282;-80
2022/12/15 01:56:31;;;;;;;19.80;13.53;;;5.30;78.50;4.90;95057.00;;;;5081836;28;20196;-80
2022/12/15 01:59:02;;;;;;;18.17;13.23;;;5.30;78.70;4.90;95054.00;;;;5084224;28;20944;-80
2022/12/15 02:01:31;;;;;;;18.37;13.23;;;5.30;78.70;4.90;95060.00;;;;5083241;28;20192;-80
2022/12/15 02:03:59;;;;;;;19.60;14.03;;;5.30;78.70;4.90;95057.00;;;;5084177;28;20216;-80
2022/12/15 02:06:29;;;;;;;18.63;13.57;;;5.30;78.70;4.90;95065.00;;;;5082765;28;20625;-80
2022/12/15 02:09:00;;;;;;;18.43;12.90;;;5.20;78.40;4.90;95066.00;;;;5083801;28;20314;-80
2022/12/15 02:12:06;;;;;;;17.30;13.37;;;5.20;78.20;4.90;95076.00;;;;5086443;28;20734;-80
2022/12/15 02:14:53;;;;;;;16.87;12.50;;;5.20;78.30;4.80;95077.00;;;;5083836;28;21004;-80
2022/12/15 02:17:37;;;;;;;20.27;13.73;;;5.20;78.30;4.80;95074.00;;;;5087173;28;20250;-80
2022/12/15 02:20:40;;;;;;;16.70;13.13;;;5.20;78.30;4.80;95074.00;;;;5087487;28;20251;-80
2022/12/15 02:24:03;;;;;;;18.67;13.53;;;5.20;78.20;4.80;95077.00;;;;5086732;28;20664;-80
2022/12/15 02:27:29;;;;;;;17.80;12.60;;;5.20;78.20;4.80;95078.00;;;;5073838;28;20195;-80
2022/12/15 02:30:35;;;;;;;18.30;13.03;;;5.20;78.20;4.70;95083.00;;;;5083507;28;20717;-80
2022/12/15 02:33:20;;;;;;;17.93;13.47;;;5.20;78.00;4.70;95089.00;;;;5087803;28;20974;-80
2022/12/15 02:35:58;;;;;;;18.03;12.90;;;5.20;79.00;4.70;95074.00;;;;5085908;28;20519;-81
2022/12/15 02:38:31;;;;;;;17.70;12.87;;;5.20;78.30;4.70;95079.00;;;;5080552;28;20662;-80
2022/12/15 02:41:00;;;;;;;17.27;12.37;;;5.10;78.20;4.70;95088.00;;;;5084987;28;20306;-80
2022/12/15 02:43:30;;;;;;;20.10;13.00;;;5.10;78.40;4.70;95090.00;;;;5084134;28;20204;-80
2022/12/15 02:46:18;;;;;;;19.50;13.53;;;5.10;78.40;4.70;95091.00;;;;5084841;28;20249;-80
2022/12/15 02:49:03;;;;;;;17.80;12.63;;;5.10;78.30;4.70;95105.00;;;;5082780;28;20224;-80
2022/12/15 02:51:49;;;;;;;17.37;12.70;;;5.10;78.30;4.70;95117.00;;;;5082088;28;20471;-80
2022/12/15 02:54:58;;;;;;;17.33;12.83;;;5.10;78.50;4.70;95121.00;;;;5080650;28;20475;-80
2022/12/15 02:57:37;;;;;;;18.37;13.13;;;5.10;78.30;4.70;95129.00;;;;5081429;28;20265;-80
2022/12/15 03:00:09;;;;;;;18.20;12.90;;;5.10;78.50;4.70;95128.00;;;;5080613;28;21203;-80
2022/12/15 03:02:44;;;;;;;19.30;13.90;;;5.10;78.60;4.70;95131.00;;;;5081293;28;20469;-80
2022/12/15 03:05:14;;;;;;;19.40;13.00;;;5.10;79.30;4.70;95127.00;;;;5078136;28;20195;-79
2022/12/15 03:07:47;;;;;;;20.30;13.87;;;5.00;78.60;4.70;95127.00;;;;5077796;28;20254;-80
2022/12/15 03:10:15;;;;;;;18.57;13.50;;;5.10;78.70;4.70;95130.00;;;;5077601;28;20226;-80
2022/12/15 03:12:43;;;;;;;19.23;13.47;;;5.10;78.60;4.70;95145.00;;;;5081807;28;20203;-80
2022/12/15 03:15:12;;;;;;;20.13;14.53;;;5.10;78.60;4.70;95142.00;;;;5078825;28;20230;-80
2022/12/15 03:17:40;;;;;;;19.90;14.23;;;5.10;78.50;4.70;95140.00;;;;5078112;28;20224;-80
2022/12/15 03:20:10;;;;;;;21.00;13.93;;;5.10;78.30;4.70;95142.00;;;;5080148;28;20228;-80
2022/12/15 03:22:38;;;;;;;18.67;13.73;;;5.10;78.40;4.70;95144.00;;;;5080625;28;20509;-80
2022/12/15 03:25:07;;;;;;;21.30;14.70;;;5.10;78.40;4.70;95150.00;;;;5078700;28;20242;-81
2022/12/15 03:27:36;;;;;;;19.43;12.93;;;5.10;78.50;4.70;95150.00;;;;5080746;28;20284;-80
2022/12/15 03:30:06;;;;;;;21.80;14.40;;;5.10;78.50;4.70;95158.00;;;;5087251;28;20653;-80
2022/12/15 03:32:33;;;;;;;19.83;13.97;;;5.10;78.50;4.70;95161.00;;;;5079407;28;20462;-80
2022/12/15 03:35:01;;;;;;;19.53;14.00;;;5.10;78.40;4.70;95159.00;;;;5078459;28;20227;-80
2022/12/15 03:37:29;;;;;;;19.67;13.83;;;5.10;78.60;4.70;95154.00;;;;5081398;28;20247;-80
2022/12/15 03:39:56;;;;;;;18.90;13.77;;;5.10;78.50;4.70;95159.00;;;;5083023;28;20200;-80
2022/12/15 03:45:06;;;;;;;20.50;14.50;;;5.00;78.20;4.70;95152.00;;;;5080077;28;20458;-80
2022/12/15 03:47:33;;;;;;;21.37;14.30;;;5.00;78.30;4.60;95148.00;;;;5078186;28;20297;-80
2022/12/15 03:50:02;;;;;;;18.67;13.23;;;5.00;78.20;4.60;95156.00;;;;5080461;28;20693;-80
2022/12/15 03:52:30;;;;;;;21.10;14.13;;;5.00;78.20;4.60;95156.00;;;;5079865;28;20914;-80
2022/12/15 03:54:57;;;;;;;19.77;13.67;;;5.00;78.30;4.60;95167.00;;;;5077744;28;20450;-80
2022/12/15 03:57:24;;;;;;;21.63;14.97;;;5.00;77.90;4.60;95165.00;;;;5079078;28;20759;-80
2022/12/15 03:59:52;;;;;;;21.83;14.83;;;5.00;78.20;4.60;95164.00;;;;5078922;28;20462;-79
2022/12/15 04:02:19;;;;;;;21.73;14.80;;;5.00;78.20;4.60;95159.00;;;;5077739;28;20473;-80
2022/12/15 04:04:47;;;;;;;19.87;13.83;;;5.00;78.30;4.60;95168.00;;;;5075615;28;20877;-80
2022/12/15 04:07:16;;;;;;;19.53;14.00;;;4.90;78.20;4.60;95160.00;;;;5074142;28;20231;-79
2022/12/15 04:09:43;;;;;;;20.97;13.80;;;4.90;78.20;4.60;95171.00;;;;5074488;28;20485;-80
2022/12/15 04:12:12;;;;;;;20.50;13.93;;;4.90;78.20;4.50;95167.00;;;;5072742;28;20449;-80
2022/12/15 04:14:41;;;;;;;20.00;14.47;;;4.90;78.20;4.50;95157.00;;;;5072565;28;20455;-80
2022/12/15 04:17:09;;;;;;;19.00;14.07;;;4.90;78.20;4.50;95171.00;;;;5073710;28;20569;-79
2022/12/15 04:22:23;;;;;;;19.30;13.17;;;4.90;78.20;4.50;95185.00;;;;5076202;28;20460;-80
2022/12/15 05:34:01;;;;;;;19.27;13.50;;;4.60;78.70;4.20;95215.00;;;;5081124;28;20419;-80
2022/12/15 05:36:28;;;;;;;19.60;13.20;;;4.60;78.70;4.20;95221.00;;;;5078245;28;20210;-80
2022/12/15 05:38:56;;;;;;;19.07;13.33;;;4.60;78.70;4.20;95216.00;;;;5081623;28;20953;-80
2022/12/15 05:41:23;;;;;;;20.87;13.93;;;4.60;78.50;4.20;95227.00;;;;5082324;28;20454;-80
2022/12/15 05:43:52;;;;;;;18.33;12.37;;;4.60;78.40;4.20;95242.00;;;;5081881;28;20207;-80
2022/12/15 05:46:19;;;;;;;19.70;13.83;;;4.60;78.40;4.20;95244.00;;;;5083455;28;20265;-81
2022/12/15 05:48:47;;;;;;;18.77;13.60;;;4.60;78.50;4.20;95240.00;;;;5081030;28;20477;-80
2022/12/15 05:51:15;;;;;;;20.97;13.93;;;4.60;78.60;4.20;95242.00;;;;5079145;28;20464;-80
2022/12/15 05:53:42;;;;;;;21.27;13.40;;;4.70;78.60;4.20;95253.00;;;;5080071;28;20783;-80
2022/12/15 05:56:12;;;;;;;21.63;15.03;;;4.70;78.40;4.20;95262.00;;;;5081156;28;20226;-80
2022/12/15 05:58:41;;;;;;;21.47;14.13;;;4.70;78.40;4.20;95248.00;;;;5081576;28;20478;-80
2022/12/15 06:01:14;;;;;;;19.53;13.63;;;4.70;78.20;4.20;95261.00;;;;5081983;28;20445;-80
2022/12/15 06:03:42;;;;;;;21.23;14.60;;;4.70;78.20;4.20;95257.00;;;;5079853;28;20503;-80
2022/12/15 06:06:13;;;;;;;23.03;14.50;;;4.60;78.00;4.20;95253.00;;;;5076775;28;20453;-80
2022/12/15 06:08:42;;;;;;;21.03;14.13;;;4.60;77.90;4.20;95256.00;;;;5084690;28;20245;-80
2022/12/15 06:11:12;;;;;;;20.03;13.60;;;4.60;77.90;4.10;95261.00;;;;5082486;28;21133;-80
2022/12/15 06:13:40;;;;;;;21.83;14.80;;;4.60;77.80;4.10;95268.00;;;;5084010;28;20438;-80
2022/12/15 06:16:12;;;;;;;20.57;14.73;;;4.60;78.00;4.10;95279.00;;;;5087967;28;20474;-83
2022/12/15 06:18:44;;;;;;;21.40;14.20;;;4.60;78.20;4.10;95278.00;;;;5088780;28;20495;-82
2022/12/15 06:21:14;;;;;;;20.63;14.20;;;4.60;78.30;4.20;95285.00;;;;5092529;28;20445;-82
2022/12/15 06:23:42;;;;;;;19.33;13.63;;;4.60;78.50;4.20;95278.00;;;;5088242;28;20471;-81
2022/12/15 06:26:13;;;;;;;20.20;14.17;;;4.60;78.60;4.20;95283.00;;;;5086695;28;20204;-81
2022/12/15 06:28:41;;;;;;;22.43;14.63;;;4.60;78.50;4.20;95284.00;;;;5089120;28;20902;-81
2022/12/15 06:31:12;;;;;;;23.23;15.00;;;4.60;78.30;4.20;95295.00;;;;5088318;28;20452;-81
2022/12/15 06:33:40;;;;;;;19.33;13.47;;;4.60;78.20;4.20;95296.00;;;;5091523;28;20511;-83
2022/12/15 06:36:11;;;;;;;21.87;14.80;;;4.60;78.20;4.20;95295.00;;;;5089090;28;20442;-83
2022/12/15 06:38:42;;;;;;;22.50;15.00;;;4.60;78.20;4.20;95291.00;;;;5090090;28;21485;-82
2022/12/15 06:41:14;;;;;;;22.63;15.03;;;4.60;78.20;4.20;95295.00;;;;5090440;28;20445;-84
2022/12/15 06:43:50;;;;;;;21.70;15.03;;;4.60;78.20;4.20;95297.00;;;;5085227;28;20982;-83
2022/12/15 06:46:20;;;;;;;21.73;14.00;;;4.60;78.20;4.20;95305.00;;;;5084315;28;20211;-84
2022/12/15 06:48:48;;;;;;;23.60;15.10;;;4.60;78.30;4.20;95300.00;;;;5084195;28;20489;-85
2022/12/15 06:51:17;;;;;;;22.57;14.30;;;4.60;78.30;4.20;95295.00;;;;5079312;28;20468;-86
2022/12/15 06:53:47;;;;;;;21.50;14.53;;;4.60;78.20;4.30;95303.00;;;;5080541;28;20438;-85
2022/12/15 06:56:19;;;;;;;22.77;14.93;;;4.60;78.10;4.40;95305.00;;;;5082041;28;20441;-85
2022/12/15 06:58:48;;;;;;;23.67;15.57;;;4.60;78.10;4.40;95309.00;;;;5078943;28;20492;-86
2022/12/15 07:01:19;;;;;;;23.50;15.17;;;4.60;78.20;4.40;95306.00;;;;5077544;28;20446;-86
2022/12/15 07:03:46;;;;;;;22.33;15.03;;;4.60;78.20;4.40;95311.00;;;;5081960;28;20438;-86
2022/12/15 07:06:17;;;;;;;25.00;15.37;;;4.70;78.20;4.50;95324.00;;;;5082068;28;20449;-85
2022/12/15 07:08:51;;;;;;;24.83;16.50;;;4.70;78.20;4.50;95322.00;;;;5092280;28;20830;-85
2022/12/15 07:11:22;;;;;;;23.07;15.23;;;4.70;78.30;4.60;95334.00;;;;5094719;28;20459;-84
2022/12/15 07:13:50;;;;;;;22.90;15.07;;;4.70;78.30;4.60;95337.00;;;;5083799;28;20207;-85
2022/12/15 07:16:20;;;;;;;23.80;15.20;;;4.70;78.20;4.60;95330.00;;;;5075258;28;20207;-85
2022/12/15 07:18:48;;;;;;;25.30;16.10;;;4.80;78.10;4.60;95330.00;;;;5080658;28;20515;-85
2022/12/15 07:21:15;;;;;;;23.00;15.30;;;4.80;78.10;4.60;95349.00;;;;5084542;28;20476;-86
2022/12/15 07:23:43;;;;;;;25.40;15.93;;;4.80;78.10;4.60;95345.00;;;;5081499;28;20506;-85
2022/12/15 07:26:11;;;;;;;25.30;15.37;;;4.80;78.20;4.60;95338.00;;;;5088987;28;20491;-86
2022/12/15 07:28:39;;;;;;;25.43;16.20;;;4.80;78.20;4.70;95343.00;;;;5085851;28;20211;-84
2022/12/15 07:31:10;;;;;;;23.97;15.57;;;4.80;78.00;4.60;95347.00;;;;5079894;28;20216;-85
2022/12/15 07:33:39;;;;;;;23.70;15.23;;;4.80;78.00;4.70;95339.00;;;;5082288;28;20533;-84
2022/12/15 07:36:08;;;;;;;24.37;15.37;;;4.80;77.80;4.70;95352.00;;;;5079516;28;20441;-84
2022/12/15 07:38:36;;;;;;;26.00;15.60;;;4.80;77.80;4.70;95358.00;;;;5078343;28;20223;-84
2022/12/15 07:41:07;;;;;;;23.83;15.57;;;4.80;77.80;4.70;95358.00;;;;5075113;28;20450;-84
2022/12/15 07:43:34;;;;;;;27.27;16.20;;;4.80;77.80;4.60;95350.00;;;;5081537;28;20659;-84
2022/12/15 07:46:02;;;;;;;24.53;14.87;;;4.80;77.70;4.60;95354.00;;;;5084694;28;20457;-84
2022/12/15 07:48:29;;;;;;;26.83;15.17;;;4.80;77.80;4.60;95342.00;;;;5084291;28;20581;-85
2022/12/15 07:50:59;;;;;;;23.53;15.90;;;4.80;77.80;4.60;95344.00;;;;5079860;28;20532;-85
2022/12/15 07:53:27;;;;;;;24.53;15.67;;;4.80;77.90;4.70;95329.00;;;;5083333;28;20441;-85
2022/12/15 07:55:57;;;;;;;24.40;15.63;;;4.80;77.90;4.70;95327.00;;;;5079758;28;20211;-85
2022/12/15 07:58:25;;;;;;;24.37;15.20;;;4.90;77.90;4.70;95334.00;;;;5074281;28;20470;-85
2022/12/15 08:00:53;;;;;;;24.77;16.43;;;4.80;77.80;4.70;95330.00;;;;5078188;28;20900;-84
2022/12/15 08:03:20;;;;;;;25.03;15.93;;;4.90;78.00;4.70;95334.00;;;;5081577;28;20478;-84
2022/12/15 08:05:48;;;;;;;23.23;15.53;;;4.90;78.10;4.80;95330.00;;;;5081313;28;20486;-84
2022/12/15 08:08:17;;;;;;;24.37;15.40;;;4.90;78.10;4.80;95316.00;;;;5082247;28;20232;-84
2022/12/15 08:10:45;;;;;;;24.37;16.77;;;4.90;78.10;4.80;95314.00;;;;5076869;28;20318;-84
2022/12/15 08:13:14;;;;;;;26.13;16.20;;;4.90;78.10;4.80;95322.00;;;;5078162;28;20246;-84
2022/12/15 08:15:42;;;;;;;26.47;16.40;;;4.90;78.00;4.80;95320.00;;;;5066993;28;20450;-85
2022/12/15 08:18:09;;;;;;;26.23;15.93;;;4.90;78.10;4.80;95315.00;;;;5084701;28;20983;-84
2022/12/15 08:20:36;;;;;;;24.73;15.73;;;4.90;78.00;4.80;95326.00;;;;5083724;28;20258;-85
2022/12/15 08:23:04;;;;;;;25.47;16.23;;;5.00;77.90;4.80;95330.00;;;;5077965;28;20212;-85
2022/12/15 08:25:33;;;;;;;25.73;15.63;;;5.00;78.00;4.80;95327.00;;;;5077504;28;20251;-85
2022/12/15 08:28:00;;;;;;;23.93;16.30;;;5.00;78.10;4.80;95346.00;;;;5073771;28;20231;-85
2022/12/15 08:30:27;;;;;;;23.53;15.67;;;5.00;78.10;4.80;95347.00;;;;5080386;28;20227;-85
2022/12/15 08:32:55;;;;;;;22.43;15.03;;;5.00;77.90;4.80;95355.00;;;;5085396;28;20211;-85
2022/12/15 08:35:22;;;;;;;24.47;16.47;;;5.00;77.90;4.90;95360.00;;;;5073457;28;20952;-84
2022/12/15 08:37:50;;;;;;;26.53;16.30;;;5.00;77.90;4.90;95364.00;;;;5079920;28;20497;-85
2022/12/15 08:40:18;;;;;;;27.30;16.87;;;5.00;77.90;4.90;95378.00;;;;5079654;28;20443;-85
2022/12/15 08:42:46;;;;;;;29.70;16.87;;;5.00;77.90;4.90;95381.00;;;;5077562;28;20214;-85
2022/12/15 08:45:14;;;;;;;22.93;16.33;;;5.00;77.90;5.00;95375.00;;;;5077446;28;20639;-85
2022/12/15 08:47:41;;;;;;;28.20;17.30;;;5.10;78.10;5.00;95386.00;;;;5079185;28;20225;-84
2022/12/15 08:50:09;;;;;;;25.50;16.30;;;5.10;78.20;5.00;95389.00;;;;5078709;28;20219;-85
2022/12/15 08:52:40;;;;;;;25.17;16.53;;;5.10;78.20;5.10;95397.00;;;;5080169;28;20214;-84
2022/12/15 08:55:11;;;;;;;23.83;15.27;;;5.10;78.20;5.10;95402.00;;;;5085010;28;20199;-84
2022/12/15 08:57:39;;;;;;;27.60;17.03;;;5.20;78.00;5.10;95420.00;;;;5076798;28;20474;-84
2022/12/15 09:00:10;;;;;;;25.73;16.97;;;5.20;78.00;5.20;95429.00;;;;5081638;28;20211;-84
2022/12/15 09:02:37;;;;;;;28.07;16.70;;;5.20;77.90;5.20;95431.00;;;;5082226;28;20268;-84
2022/12/15 09:05:06;;;;;;;25.33;16.47;;;5.20;77.90;5.30;95426.00;;;;5082509;28;20567;-84
2022/12/15 09:07:34;;;;;;;25.93;17.00;;;5.30;77.90;5.30;95434.00;;;;5079074;28;20530;-85
2022/12/15 09:10:01;;;;;;;25.77;16.70;;;5.30;78.00;5.30;95440.00;;;;5077117;28;20231;-83
2022/12/15 09:12:29;;;;;;;26.70;16.97;;;5.30;77.90;5.30;95441.00;;;;5077578;28;20199;-83
2022/12/15 09:14:56;;;;;;;28.90;17.83;;;5.30;77.80;5.30;95430.00;;;;5077798;28;20203;-84
2022/12/15 09:17:25;;;;;;;26.63;16.70;;;5.30;77.70;5.40;95418.00;;;;5076089;28;20219;-83
2022/12/15 09:19:52;;;;;;;25.13;16.77;;;5.40;77.70;5.40;95410.00;;;;5076678;28;20199;-83
2022/12/15 09:22:20;;;;;;;27.33;17.07;;;5.40;77.80;5.40;95401.00;;;;5076707;28;20210;-83
2022/12/15 09:24:49;;;;;;;26.73;17.27;;;5.40;77.70;5.40;95400.00;;;;5078804;28;20651;-83
2022/12/15 09:27:16;;;;;;;28.47;16.70;;;5.50;77.60;5.50;95401.00;;;;5077737;28;20313;-84
2022/12/15 09:29:44;;;;;;;26.30;16.60;;;5.50;77.60;5.50;95398.00;;;;5079906;28;20207;-84
2022/12/15 09:32:12;;;;;;;25.30;16.47;;;5.50;77.60;5.50;95406.00;;;;5078078;28;20218;-85
2022/12/15 09:34:41;;;;;;;27.33;17.10;;;5.50;77.60;5.50;95396.00;;;;5074853;28;20556;-84
2022/12/15 09:37:09;;;;;;;26.43;16.77;;;5.50;77.40;5.50;95382.00;;;;5077206;28;20689;-84
2022/12/15 09:39:37;;;;;;;26.67;17.47;;;5.60;77.50;5.50;95376.00;;;;5074611;28;20208;-84
2022/12/15 09:42:05;;;;;;;26.90;16.30;;;5.60;78.10;5.50;95373.00;;;;5080410;28;20320;-85
2022/12/15 09:44:34;;;;;;;29.47;17.40;;;5.40;77.10;5.50;95366.00;;;;5078825;28;20195;-84
2022/12/15 09:47:16;;;;;;;30.77;18.30;;;5.60;77.40;5.50;95357.00;;;;5081221;28;20242;-83
2022/12/15 09:49:54;;;;;;;28.67;17.17;;;5.60;77.40;5.50;95358.00;;;;5084450;28;20248;-84
2022/12/15 09:52:28;;;;;;;28.00;16.90;;;5.60;77.30;5.50;95355.00;;;;5079307;28;20227;-84
2022/12/15 09:54:57;;;;;;;31.37;18.33;;;5.60;77.30;5.50;95367.00;;;;5081598;28;20266;-84
2022/12/15 09:57:36;;;;;;;28.57;17.60;;;5.60;77.30;5.50;95364.00;;;;5077020;28;20219;-84
2022/12/15 10:00:19;;;;;;;29.87;17.37;;;5.60;77.10;5.50;95377.00;;;;5083193;28;20215;-85
2022/12/15 10:03:33;;;;;;;27.23;17.80;;;5.70;77.10;5.50;95359.00;;;;5081946;28;20210;-84
2022/12/15 10:06:15;;;;;;;28.53;17.90;;;5.60;76.90;5.60;95360.00;;;;5083095;28;20594;-84
2022/12/15 10:08:48;;;;;;;28.53;17.97;;;5.70;77.00;5.60;95362.00;;;;5077305;28;20305;-84
2022/12/15 10:11:25;;;;;;;28.63;17.50;;;5.60;77.30;5.60;95359.00;;;;5079600;28;20550;-84
2022/12/15 10:14:02;;;;;;;29.77;18.27;;;5.60;77.30;5.60;95357.00;;;;5078692;28;20280;-84
2022/12/15 10:16:40;;;;;;;30.50;17.57;;;5.70;77.40;5.60;95356.00;;;;5077829;28;20196;-84
2022/12/15 10:19:14;;;;;;;30.57;18.53;;;5.70;77.40;5.60;95361.00;;;;5080684;28;20191;-84
2022/12/15 10:21:43;;;;;;;30.23;18.73;;;5.70;77.30;5.60;95344.00;;;;5081532;28;20245;-84
2022/12/15 10:24:19;;;;;;;31.93;19.33;;;5.70;77.10;5.60;95344.00;;;;5078861;28;20207;-84
2022/12/15 10:26:59;;;;;;;31.40;18.67;;;5.70;77.00;5.60;95336.00;;;;5079953;28;20208;-84
2022/12/15 10:29:38;;;;;;;30.37;17.97;;;5.70;77.00;5.60;95332.00;;;;5080813;28;20200;-84
2022/12/15 10:32:17;;;;;;;28.53;17.63;;;5.70;77.10;5.60;95330.00;;;;5081536;28;20674;-84
2022/12/15 10:34:45;;;;;;;30.10;17.77;;;5.70;77.40;5.60;95326.00;;;;5076955;28;20210;-84
2022/12/15 10:37:20;;;;;;;31.97;18.73;;;5.70;77.30;5.60;95334.00;;;;5077013;28;20231;-84
2022/12/15 10:39:50;;;;;;;42.33;19.77;;;5.70;77.10;5.60;95347.00;;;;5080274;28;20196;-84
2022/12/15 10:42:21;;;;;;;31.77;18.97;;;5.70;77.20;5.60;95339.00;;;;5082509;28;20199;-84
2022/12/15 10:44:51;;;;;;;34.90;20.07;;;5.70;77.20;5.70;95331.00;;;;5081662;28;20206;-84
2022/12/15 10:47:23;;;;;;;33.60;18.37;;;5.70;77.20;5.70;95337.00;;;;5080880;28;20277;-83
2022/12/15 10:49:51;;;;;;;29.80;17.90;;;5.70;77.20;5.70;95327.00;;;;5081345;28;20203;-84
2022/12/15 10:52:35;;;;;;;30.50;18.10;;;5.70;77.30;5.70;95328.00;;;;5079104;28;20825;-84
2022/12/15 10:55:22;;;;;;;30.80;18.00;;;5.80;77.10;5.70;95329.00;;;;5079843;28;20199;-84
2022/12/15 10:57:59;;;;;;;28.73;17.80;;;5.80;77.30;5.70;95340.00;;;;5080040;28;20220;-84
2022/12/15 11:00:30;;;;;;;31.53;17.80;;;5.80;77.20;5.70;95342.00;;;;5080603;28;20215;-83
2022/12/15 11:02:59;;;;;;;28.00;17.97;;;5.80;77.40;5.70;95344.00;;;;5080323;28;20204;-84
2022/12/15 11:05:27;;;;;;;30.80;17.83;;;5.80;77.30;5.70;95347.00;;;;5083673;28;20200;-83
2022/12/15 11:08:15;;;;;;;29.50;17.27;;;5.80;77.00;5.70;95332.00;;;;5081789;28;20239;-85
2022/12/15 11:13:38;;;;;;;27.47;17.30;;;5.80;77.00;5.70;95319.00;;;;5082351;28;20203;-85
2022/12/15 11:16:17;;;;;;;25.37;16.53;;;5.80;77.20;5.80;95323.00;;;;5081144;28;20206;-84
2022/12/15 11:18:50;;;;;;;29.03;18.13;;;5.80;77.00;5.80;95311.00;;;;5083808;28;20222;-83
2022/12/15 11:21:24;;;;;;;27.93;16.50;;;5.80;77.30;5.80;95303.00;;;;5081776;28;20211;-83
2022/12/15 11:24:03;;;;;;;26.67;17.70;;;5.80;77.30;5.80;95299.00;;;;5082918;28;20344;-83
2022/12/15 11:26:46;;;;;;;28.87;18.40;;;5.80;77.20;5.80;95299.00;;;;5081633;28;20211;-84
2022/12/15 11:29:27;;;;;;;28.70;17.23;;;5.90;78.00;5.90;95302.00;;;;5082868;28;20552;-83
2022/12/15 11:31:57;;;;;;;27.90;17.20;;;5.90;77.20;5.80;95300.00;;;;5083935;28;20227;-83
2022/12/15 11:34:35;;;;;;;31.93;17.63;;;5.90;77.40;5.90;95310.00;;;;5083863;28;20203;-85
2022/12/15 11:37:32;;;;;;;32.27;18.67;;;5.90;77.20;5.80;95303.00;;;;5079498;28;20230;-83
2022/12/15 11:40:36;;;;;;;30.77;18.07;;;5.90;76.70;5.80;95307.00;;;;5081897;28;20214;-84
2022/12/15 11:43:34;;;;;;;29.93;17.77;;;5.90;76.60;5.80;95286.00;;;;5064459;28;20272;-84
2022/12/15 11:46:22;;;;;;;33.53;18.40;;;5.90;76.50;5.80;95284.00;;;;5083684;28;20187;-83
2022/12/15 11:49:21;;;;;;;28.43;17.13;;;5.90;76.50;5.80;95282.00;;;;5079341;28;20230;-85
2022/12/15 11:51:58;;;;;;;27.70;16.77;;;5.90;77.00;5.80;95280.00;;;;5080439;28;20222;-85
2022/12/15 11:54:36;;;;;;;29.33;18.17;;;5.90;77.30;5.90;95288.00;;;;5081772;28;20204;-83
2022/12/15 11:57:39;;;;;;;30.23;17.70;;;5.90;77.30;5.90;95279.00;;;;5080637;28;20231;-84
2022/12/15 12:00:12;;;;;;;31.03;17.73;;;5.90;77.00;5.90;95270.00;;;;5078770;28;20217;-84
2022/12/15 12:02:57;;;;;;;32.50;19.10;;;5.90;77.10;5.90;95273.00;;;;5077784;28;20210;-83
2022/12/15 12:05:49;;;;;;;29.73;17.53;;;6.00;76.70;5.90;95271.00;;;;5079742;28;20544;-84
2022/12/15 12:08:56;;;;;;;32.30;18.57;;;6.00;76.70;5.90;95286.00;;;;5075767;28;20219;-83
2022/12/15 12:11:30;;;;;;;27.13;17.63;;;6.00;76.80;5.90;95293.00;;;;5072458;28;20227;-84
2022/12/15 12:14:31;;;;;;;27.97;18.00;;;6.00;77.00;5.90;95303.00;;;;5080988;28;20195;-82
2022/12/15 12:17:08;;;;;;;29.53;17.57;;;6.00;76.60;5.90;95307.00;;;;5078706;28;20202;-83
2022/12/15 12:19:43;;;;;;;31.30;18.03;;;6.00;76.90;5.90;95309.00;;;;5079985;28;20271;-84
2022/12/15 12:22:21;;;;;;;28.63;17.10;;;6.00;77.00;5.90;95306.00;;;;5080170;28;20612;-84
2022/12/15 12:24:55;;;;;;;29.97;18.00;;;6.00;76.70;5.90;95295.00;;;;5078299;28;20191;-85
2022/12/15 12:27:33;;;;;;;32.17;18.77;;;6.00;76.40;5.90;95296.00;;;;5076484;28;20841;-85
2022/12/15 12:30:11;;;;;;;29.07;18.57;;;6.00;76.30;5.90;95288.00;;;;5078063;28;20195;-84
2022/12/15 12:32:50;;;;;;;28.73;17.77;;;6.00;76.50;5.90;95284.00;;;;5079617;28;20838;-85
2022/12/15 12:35:28;;;;;;;29.80;18.10;;;5.90;76.60;5.80;95274.00;;;;5077880;28;20723;-83
2022/12/15 12:38:01;;;;;;;30.80;18.90;;;6.00;76.70;5.90;95257.00;;;;5076163;28;20210;-86
2022/12/15 12:40:44;;;;;;;31.27;18.33;;;6.00;76.80;5.90;95251.00;;;;5076004;28;20291;-83
2022/12/15 12:43:26;;;;;;;27.50;18.03;;;6.00;77.00;5.90;95241.00;;;;5076522;28;20195;-85
2022/12/15 12:46:03;;;;;;;29.03;17.90;;;6.00;77.00;5.90;95233.00;;;;5076000;28;20249;-84
2022/12/15 12:48:38;;;;;;;30.20;18.60;;;6.00;77.00;5.90;95216.00;;;;5077402;28;20280;-84
2022/12/15 12:51:31;;;;;;;33.07;18.60;;;6.00;76.90;5.90;95223.00;;;;5075049;28;20215;-84
2022/12/15 12:54:01;;;;;;;30.17;17.90;;;6.00;76.40;5.90;95195.00;;;;5076800;28;20273;-83
2022/12/15 12:56:43;;;;;;;31.47;19.13;;;6.00;76.70;5.90;95198.00;;;;5078107;28;20249;-84
2022/12/15 12:59:37;;;;;;;29.03;17.90;;;6.00;76.40;5.90;95191.00;;;;5078930;28;20211;-83
2022/12/15 13:03:16;;;;;;;28.97;17.97;;;6.00;76.10;5.80;95203.00;;;;5083846;28;20623;-82
2022/12/15 13:05:53;;;;;;;28.70;18.10;;;6.00;76.10;5.80;95207.00;;;;5030610;28;20382;-83
2022/12/15 13:08:47;;;;;;;30.53;17.93;;;6.00;76.70;5.90;95212.00;;;;5078200;28;20716;-81
2022/12/15 13:12:00;;;;;;;29.30;17.07;;;6.00;76.80;5.90;95206.00;;;;5083841;28;20621;-82
2022/12/15 13:14:44;;;;;;;28.90;17.30;;;6.00;76.70;5.90;95220.00;;;;5081488;28;20256;-82
2022/12/15 13:17:29;;;;;;;31.33;17.20;;;6.00;76.80;5.90;95221.00;;;;5081867;28;20661;-81
2022/12/15 13:20:25;;;;;;;31.27;18.00;;;6.00;76.60;5.80;95226.00;;;;5082708;28;20291;-82
2022/12/15 13:23:17;;;;;;;30.93;17.80;;;6.00;76.40;5.90;95222.00;;;;5082579;28;20679;-82
2022/12/15 13:25:45;;;;;;;28.20;17.00;;;5.90;76.90;5.90;95221.00;;;;5080730;28;20208;-82
2022/12/15 13:28:28;;;;;;;28.30;17.17;;;5.90;76.90;5.90;95204.00;;;;5080511;28;20227;-82
2022/12/15 13:31:27;;;;;;;27.87;17.47;;;6.00;76.70;5.80;95208.00;;;;5081582;28;20216;-82
2022/12/15 13:34:23;;;;;;;28.17;16.87;;;6.00;76.60;5.90;95216.00;;;;5029170;28;20239;-82
2022/12/15 13:37:01;;;;;;;27.83;17.83;;;6.00;76.70;5.90;95220.00;;;;5082590;28;20204;-82
2022/12/15 13:39:57;;;;;;;28.57;17.63;;;6.00;76.80;5.90;95217.00;;;;5081350;28;21344;-82
2022/12/15 13:42:36;;;;;;;29.03;17.80;;;6.00;76.50;5.90;95223.00;;;;5076677;28;20214;-82
2022/12/15 13:45:50;;;;;;;29.30;17.93;;;6.00;76.80;5.90;95217.00;;;;5079518;28;20203;-83
2022/12/15 13:48:37;;;;;;;32.20;19.07;;;6.00;77.20;5.90;95217.00;;;;5040397;28;20369;-82
2022/12/15 13:51:32;;;;;;;29.53;17.87;;;6.00;76.90;5.90;95210.00;;;;5074891;28;20241;-82
2022/12/15 13:54:14;;;;;;;29.30;17.70;;;6.00;76.60;5.90;95206.00;;;;5062421;28;20249;-82
2022/12/15 13:57:01;;;;;;;29.07;17.57;;;6.00;77.10;5.90;95205.00;;;;5078322;28;20929;-83